createdAt,value
2018-09-30T00:00:08.938Z,98557.67
2018-09-30T00:01:12.462Z,98557.62
2018-09-30T00:02:16.142Z,98556.63
2018-09-30T00:03:18.823Z,98557.42
2018-09-30T00:04:21.865Z,98550.11
2018-09-30T00:05:24.563Z,98553.06
2018-09-30T00:06:30.225Z,98554.13
2018-09-30T00:07:35.624Z,98557.14
2018-09-30T00:08:40.615Z,98555.05
2018-09-30T00:09:43.310Z,98553.66
2018-09-30T00:10:46.321Z,98552.65
2018-09-30T00:11:49.815Z,98552.11
2018-09-30T00:12:52.515Z,98553.95
2018-09-30T00:13:55.228Z,98544.22
2018-09-30T00:14:57.916Z,98540.41
2018-09-30T00:16:00.635Z,98539.38
2018-09-30T00:17:03.861Z,98537.21
2018-09-30T00:18:06.583Z,98542.89
2018-09-30T00:19:10.412Z,98538.27
2018-09-30T00:20:13.150Z,98536.20
2018-09-30T00:21:15.861Z,98534.08
2018-09-30T00:22:18.556Z,98525.50
2018-09-30T00:23:22.211Z,98526.83
2018-09-30T00:24:31.669Z,98524.77
2018-09-30T00:25:39.469Z,98528.06
2018-09-30T00:27:46.518Z,98520.49
2018-09-30T00:28:49.246Z,98516.16
2018-09-30T00:29:53.002Z,98517.55
2018-09-30T00:30:55.719Z,98516.73
2018-09-30T00:31:59.246Z,98517.30
2018-09-30T00:33:01.944Z,98513.28
2018-09-30T00:34:09.565Z,98509.50
2018-09-30T00:35:12.319Z,98512.44
2018-09-30T00:36:16.621Z,98513.55
2018-09-30T00:37:19.379Z,98512.47
2018-09-30T00:38:22.074Z,98510.86
2018-09-30T00:39:25.852Z,98504.09
2018-09-30T00:40:28.678Z,98509.28
2018-09-30T00:41:31.446Z,98513.34
2018-09-30T00:42:34.582Z,98512.80
2018-09-30T00:43:38.583Z,98512.48
2018-09-30T00:44:42.742Z,98506.55
2018-09-30T00:45:45.694Z,98509.27
2018-09-30T00:46:49.342Z,98507.11
2018-09-30T00:47:52.668Z,98514.41
2018-09-30T00:48:56.438Z,98506.59
2018-09-30T00:49:59.461Z,98500.08
2018-09-30T00:51:02.925Z,98497.94
2018-09-30T00:52:06.420Z,98500.91
2018-09-30T00:53:11.549Z,98499.53
2018-09-30T00:54:15.090Z,98496.28
2018-09-30T00:55:18.593Z,98494.98
2018-09-30T00:56:21.262Z,98499.63
2018-09-30T00:57:23.980Z,98496.11
2018-09-30T00:58:26.804Z,98493.42
2018-09-30T00:59:29.540Z,98497.19
2018-09-30T01:00:33.203Z,98486.64
2018-09-30T01:01:36.436Z,98484.97
2018-09-30T01:02:39.342Z,98488.94
2018-09-30T01:03:42.109Z,98479.99
2018-09-30T01:04:44.799Z,98479.41
2018-09-30T01:05:47.668Z,98484.87
2018-09-30T01:06:50.377Z,98480.56
2018-09-30T01:07:53.366Z,98485.44
2018-09-30T01:08:56.125Z,98480.91
2018-09-30T01:09:58.814Z,98485.50
2018-09-30T01:11:01.518Z,98480.72
2018-09-30T01:12:04.216Z,98481.83
2018-09-30T01:13:06.936Z,98481.30
2018-09-30T01:14:09.935Z,98483.22
2018-09-30T01:15:12.655Z,98488.07
2018-09-30T01:16:15.658Z,98477.28
2018-09-30T01:17:18.368Z,98469.98
2018-09-30T01:18:21.071Z,98471.61
2018-09-30T01:19:23.796Z,98466.80
2018-09-30T01:20:26.785Z,98473.02
2018-09-30T01:21:29.609Z,98465.16
2018-09-30T01:22:32.355Z,98467.54
2018-09-30T01:23:35.302Z,98462.92
2018-09-30T01:24:38.029Z,98455.64
2018-09-30T01:25:40.933Z,98455.41
2018-09-30T01:26:44.422Z,98453.25
2018-09-30T01:27:47.917Z,98449.45
2018-09-30T01:28:50.602Z,98446.45
2018-09-30T01:29:54.293Z,98445.66
2018-09-30T01:30:56.982Z,98444.04
2018-09-30T01:31:59.755Z,98446.98
2018-09-30T01:33:02.820Z,98446.92
2018-09-30T01:34:06.143Z,98448.52
2018-09-30T01:35:09.435Z,98444.20
2018-09-30T01:36:12.269Z,98447.98
2018-09-30T01:37:14.981Z,98445.85
2018-09-30T01:38:17.730Z,98439.95
2018-09-30T01:39:20.728Z,98438.63
2018-09-30T01:40:23.413Z,98433.27
2018-09-30T01:41:26.146Z,98430.05
2018-09-30T01:42:28.862Z,98432.44
2018-09-30T01:43:31.556Z,98431.35
2018-09-30T01:44:36.032Z,98430.46
2018-09-30T01:45:39.071Z,98428.31
2018-09-30T01:46:41.773Z,98421.30
2018-09-30T01:47:44.492Z,98424.58
2018-09-30T01:48:47.220Z,98419.48
2018-09-30T01:49:50.027Z,98420.84
2018-09-30T01:50:52.842Z,98422.17
2018-09-30T01:51:55.902Z,98421.08
2018-09-30T01:52:59.587Z,98416.78
2018-09-30T01:54:02.354Z,98411.92
2018-09-30T01:55:05.158Z,98411.41
2018-09-30T01:56:07.939Z,98414.39
2018-09-30T01:57:10.658Z,98418.16
2018-09-30T01:58:13.841Z,98411.20
2018-09-30T02:00:35.575Z,98403.89
2018-09-30T02:01:38.374Z,98411.97
2018-09-30T02:02:41.156Z,98404.16
2018-09-30T02:03:45.559Z,98404.42
2018-09-30T02:04:48.654Z,98407.94
2018-09-30T02:05:51.436Z,98409.55
2018-09-30T02:06:54.264Z,98406.59
2018-09-30T02:07:57.089Z,98405.23
2018-09-30T02:09:00.002Z,98397.98
2018-09-30T02:10:04.572Z,98400.66
2018-09-30T02:11:08.440Z,98402.04
2018-09-30T02:12:11.155Z,98402.57
2018-09-30T02:13:13.863Z,98396.38
2018-09-30T02:14:16.681Z,98400.41
2018-09-30T02:15:19.424Z,98397.17
2018-09-30T02:16:22.964Z,98394.20
2018-09-30T02:17:26.070Z,98387.73
2018-09-30T02:18:28.904Z,98385.89
2018-09-30T02:19:31.784Z,98388.95
2018-09-30T02:20:34.492Z,98388.46
2018-09-30T02:21:37.210Z,98385.78
2018-09-30T02:22:39.948Z,98389.25
2018-09-30T02:23:42.979Z,98389.78
2018-09-30T02:24:45.707Z,98388.42
2018-09-30T02:25:48.434Z,98394.33
2018-09-30T02:26:51.199Z,98384.04
2018-09-30T02:27:53.898Z,98388.34
2018-09-30T02:28:56.607Z,98385.13
2018-09-30T02:29:59.635Z,98391.86
2018-09-30T02:31:02.381Z,98385.66
2018-09-30T02:32:05.226Z,98387.81
2018-09-30T02:33:07.964Z,98382.15
2018-09-30T02:34:10.672Z,98378.86
2018-09-30T02:35:13.387Z,98380.20
2018-09-30T02:36:16.409Z,98375.16
2018-09-30T02:37:19.629Z,98378.44
2018-09-30T02:38:22.361Z,98378.44
2018-09-30T02:39:25.103Z,98370.67
2018-09-30T02:40:27.822Z,98381.95
2018-09-30T02:41:30.531Z,98365.21
2018-09-30T02:42:33.530Z,98373.87
2018-09-30T02:43:36.255Z,98373.10
2018-09-30T02:44:38.965Z,98375.81
2018-09-30T02:45:41.699Z,98360.83
2018-09-30T02:46:44.391Z,98364.59
2018-09-30T02:47:47.726Z,98376.98
2018-09-30T02:48:50.768Z,98372.67
2018-09-30T02:49:53.506Z,98371.33
2018-09-30T02:50:56.265Z,98365.40
2018-09-30T02:51:58.992Z,98371.90
2018-09-30T02:53:01.794Z,98370.28
2018-09-30T02:54:04.527Z,98369.19
2018-09-30T02:55:07.531Z,98366.26
2018-09-30T02:56:10.270Z,98368.13
2018-09-30T02:57:13.199Z,98363.55
2018-09-30T02:58:15.907Z,98363.82
2018-09-30T02:59:18.658Z,98364.63
2018-09-30T03:00:21.399Z,98356.00
2018-09-30T03:01:24.409Z,98351.95
2018-09-30T03:02:27.110Z,98346.06
2018-09-30T03:03:30.439Z,98353.61
2018-09-30T03:04:33.188Z,98360.34
2018-09-30T03:05:35.906Z,98351.98
2018-09-30T03:06:43.523Z,98349.55
2018-09-30T03:07:51.458Z,98348.48
2018-09-30T03:08:59.089Z,98344.16
2018-09-30T03:10:01.801Z,98343.89
2018-09-30T03:11:04.792Z,98336.65
2018-09-30T03:12:07.982Z,98341.78
2018-09-30T03:13:10.703Z,98341.52
2018-09-30T03:14:15.004Z,98343.92
2018-09-30T03:15:17.763Z,98343.66
2018-09-30T03:16:20.524Z,98342.55
2018-09-30T03:17:23.265Z,98342.04
2018-09-30T03:18:27.595Z,98338.52
2018-09-30T03:19:31.578Z,98341.22
2018-09-30T03:20:34.594Z,98333.92
2018-09-30T03:21:38.115Z,98346.59
2018-09-30T03:22:40.862Z,98344.72
2018-09-30T03:23:43.607Z,98341.77
2018-09-30T03:24:46.347Z,98342.86
2018-09-30T03:25:49.049Z,98353.07
2018-09-30T03:26:51.768Z,98348.26
2018-09-30T03:27:54.752Z,98348.51
2018-09-30T03:28:57.491Z,98344.23
2018-09-30T03:30:00.208Z,98345.56
2018-09-30T03:31:02.951Z,98345.28
2018-09-30T03:32:05.686Z,98346.36
2018-09-30T03:33:08.696Z,98343.39
2018-09-30T03:34:12.528Z,98346.63
2018-09-30T03:35:15.245Z,98344.20
2018-09-30T03:36:19.683Z,98344.73
2018-09-30T03:37:23.016Z,98335.58
2018-09-30T03:38:25.719Z,98340.97
2018-09-30T03:39:28.767Z,98340.97
2018-09-30T03:40:31.471Z,98332.36
2018-09-30T03:41:34.206Z,98335.58
2018-09-30T03:42:36.991Z,98337.22
2018-09-30T03:43:40.487Z,98335.86
2018-09-30T03:44:43.187Z,98329.13
2018-09-30T03:45:46.281Z,98322.70
2018-09-30T03:46:49.006Z,98330.77
2018-09-30T03:47:51.717Z,98331.29
2018-09-30T03:48:54.437Z,98332.89
2018-09-30T03:49:57.162Z,98330.19
2018-09-30T03:50:59.882Z,98327.77
2018-09-30T03:52:03.072Z,98328.61
2018-09-30T03:53:05.796Z,98328.62
2018-09-30T03:54:08.486Z,98331.30
2018-09-30T03:55:11.231Z,98323.48
2018-09-30T03:56:13.960Z,98329.15
2018-09-30T03:57:16.666Z,98324.33
2018-09-30T03:58:22.508Z,98320.53
2018-09-30T03:59:25.272Z,98332.38
2018-09-30T04:00:28.022Z,98326.20
2018-09-30T04:01:30.784Z,98322.17
2018-09-30T04:02:34.482Z,98327.55
2018-09-30T04:03:37.215Z,98328.34
2018-09-30T04:04:40.242Z,98319.48
2018-09-30T04:05:42.958Z,98313.83
2018-09-30T04:06:45.660Z,98320.28
2018-09-30T04:07:48.362Z,98319.44
2018-09-30T04:08:51.061Z,98310.03
2018-09-30T04:09:54.560Z,98310.31
2018-09-30T04:10:57.593Z,98307.91
2018-09-30T04:12:00.295Z,98306.59
2018-09-30T04:13:03.004Z,98315.99
2018-09-30T04:14:05.725Z,98311.97
2018-09-30T04:15:08.459Z,98304.73
2018-09-30T04:16:11.165Z,98304.73
2018-09-30T04:17:14.218Z,98309.55
2018-09-30T04:18:16.962Z,98305.80
2018-09-30T04:19:19.739Z,98304.97
2018-09-30T04:20:22.468Z,98300.97
2018-09-30T04:21:25.177Z,98297.45
2018-09-30T04:22:27.893Z,98299.34
2018-09-30T04:23:31.022Z,98303.39
2018-09-30T04:24:33.728Z,98307.94
2018-09-30T04:25:36.479Z,98307.66
2018-09-30T04:26:40.198Z,98308.48
2018-09-30T04:27:42.932Z,98307.38
2018-09-30T04:28:45.642Z,98307.14
2018-09-30T04:29:48.617Z,98307.66
2018-09-30T04:30:51.341Z,98303.63
2018-09-30T04:31:54.630Z,98296.39
2018-09-30T04:32:57.327Z,98300.94
2018-09-30T04:34:00.205Z,98302.55
2018-09-30T04:35:02.927Z,98306.59
2018-09-30T04:36:05.950Z,98297.18
2018-09-30T04:37:09.084Z,98305.80
2018-09-30T04:38:11.833Z,98301.77
2018-09-30T04:39:14.565Z,98302.03
2018-09-30T04:40:17.320Z,98303.91
2018-09-30T04:41:20.058Z,98300.70
2018-09-30T04:42:23.071Z,98296.67
2018-09-30T04:43:25.804Z,98294.78
2018-09-30T04:44:28.551Z,98296.64
2018-09-30T04:45:31.280Z,98303.06
2018-09-30T04:46:33.987Z,98295.84
2018-09-30T04:47:36.728Z,98299.88
2018-09-30T04:48:39.798Z,98295.84
2018-09-30T04:49:42.517Z,98300.42
2018-09-30T04:50:45.247Z,98296.66
2018-09-30T04:51:48.008Z,98297.45
2018-09-30T04:52:50.863Z,98291.81
2018-09-30T04:53:53.569Z,98289.92
2018-09-30T04:54:56.599Z,98288.34
2018-09-30T04:55:59.308Z,98285.09
2018-09-30T04:57:02.054Z,98288.86
2018-09-30T04:58:04.808Z,98296.64
2018-09-30T04:59:07.531Z,98295.57
2018-09-30T05:00:10.237Z,98292.61
2018-09-30T05:01:13.489Z,98291.81
2018-09-30T05:02:16.211Z,98292.33
2018-09-30T05:03:18.936Z,98289.64
2018-09-30T05:04:21.637Z,98290.70
2018-09-30T05:05:24.374Z,98288.58
2018-09-30T05:06:27.100Z,98295.27
2018-09-30T05:07:30.459Z,98292.02
2018-09-30T05:08:33.142Z,98290.96
2018-09-30T05:09:35.866Z,98294.44
2018-09-30T05:10:38.606Z,98293.89
2018-09-30T05:11:41.309Z,98290.62
2018-09-30T05:12:44.028Z,98290.64
2018-09-30T05:13:47.102Z,98297.61
2018-09-30T05:14:49.958Z,98298.69
2018-09-30T05:15:53.136Z,98293.31
2018-09-30T05:16:56.014Z,98295.45
2018-09-30T05:17:59.099Z,98289.02
2018-09-30T05:19:01.813Z,98288.75
2018-09-30T05:20:05.128Z,98290.09
2018-09-30T05:21:07.849Z,98288.45
2018-09-30T05:22:10.786Z,98285.52
2018-09-30T05:23:13.483Z,98279.91
2018-09-30T05:24:16.779Z,98283.96
2018-09-30T05:25:19.480Z,98283.67
2018-09-30T05:26:22.496Z,98281.52
2018-09-30T05:27:25.207Z,98282.03
2018-09-30T05:28:27.920Z,98283.62
2018-09-30T05:29:30.620Z,98293.27
2018-09-30T05:30:33.339Z,98285.52
2018-09-30T05:44:54.598Z,98284.23
2018-09-30T05:45:57.327Z,98281.55
2018-09-30T05:47:00.048Z,98275.12
2018-09-30T05:48:02.759Z,98273.78
2018-09-30T05:49:05.488Z,98264.68
2018-09-30T05:50:08.806Z,98263.61
2018-09-30T05:51:12.128Z,98264.13
2018-09-30T05:52:14.881Z,98251.53
2018-09-30T05:53:17.582Z,98243.17
2018-09-30T05:54:20.318Z,98245.61
2018-09-30T05:55:23.040Z,98240.24
2018-09-30T05:56:27.275Z,98239.14
2018-09-30T05:57:30.033Z,98242.82
2018-09-30T05:58:32.751Z,98234.94
2018-09-30T05:59:35.440Z,98237.62
2018-09-30T06:00:38.179Z,98235.63
2018-09-30T06:01:41.260Z,98236.40
2018-09-30T06:02:44.310Z,98230.72
2018-09-30T06:03:47.909Z,98229.07
2018-09-30T06:04:50.693Z,98231.33
2018-09-30T06:05:54.991Z,98234.30
2018-09-30T06:06:57.745Z,98234.03
2018-09-30T06:08:00.689Z,98229.94
2018-09-30T06:09:05.744Z,98225.23
2018-09-30T06:10:08.460Z,98227.28
2018-09-30T06:11:11.181Z,98222.69
2018-09-30T06:12:14.302Z,98220.99
2018-09-30T06:13:17.020Z,98220.36
2018-09-30T06:14:19.900Z,98224.14
2018-09-30T06:15:23.520Z,98221.16
2018-09-30T06:16:26.270Z,98224.89
2018-09-30T06:17:30.009Z,98221.53
2018-09-30T06:18:32.743Z,98223.61
2018-09-30T06:19:35.529Z,98222.16
2018-09-30T06:20:38.805Z,98218.41
2018-09-30T06:21:42.589Z,98224.45
2018-09-30T06:22:45.331Z,98217.24
2018-09-30T06:23:48.097Z,98219.88
2018-09-30T06:24:50.853Z,98225.77
2018-09-30T06:25:53.647Z,98227.27
2018-09-30T06:26:56.399Z,98227.66
2018-09-30T06:27:59.542Z,98231.84
2018-09-30T06:29:02.412Z,98235.40
2018-09-30T06:30:05.203Z,98228.67
2018-09-30T06:31:07.951Z,98226.60
2018-09-30T06:32:10.785Z,98232.76
2018-09-30T06:33:13.565Z,98225.28
2018-09-30T06:34:16.633Z,98223.37
2018-09-30T06:35:19.433Z,98225.59
2018-09-30T06:36:22.207Z,98221.61
2018-09-30T06:37:24.932Z,98222.09
2018-09-30T06:38:28.427Z,98223.67
2018-09-30T06:39:31.195Z,98224.38
2018-09-30T06:40:34.232Z,98226.95
2018-09-30T06:41:37.023Z,98219.72
2018-09-30T06:42:39.778Z,98226.73
2018-09-30T06:43:42.530Z,98228.06
2018-09-30T06:44:45.359Z,98227.82
2018-09-30T06:45:48.093Z,98220.31
2018-09-30T06:46:51.344Z,98222.80
2018-09-30T06:47:54.303Z,98226.31
2018-09-30T06:48:57.104Z,98219.22
2018-09-30T06:49:59.830Z,98221.67
2018-09-30T06:51:02.885Z,98216.32
2018-09-30T06:52:05.737Z,98218.25
2018-09-30T06:53:08.595Z,98217.24
2018-09-30T06:54:12.366Z,98220.63
2018-09-30T06:55:15.324Z,98219.93
2018-09-30T06:56:18.114Z,98210.45
2018-09-30T06:57:20.903Z,98216.75
2018-09-30T06:58:24.005Z,98218.61
2018-09-30T06:59:27.030Z,98219.81
2018-09-30T07:00:30.093Z,98217.92
2018-09-30T07:01:33.224Z,98218.13
2018-09-30T07:02:36.035Z,98215.31
2018-09-30T07:03:38.921Z,98221.13
2018-09-30T07:04:43.355Z,98216.34
2018-09-30T07:05:46.653Z,98220.34
2018-09-30T07:06:50.409Z,98217.76
2018-09-30T07:07:53.255Z,98209.20
2018-09-30T07:08:59.343Z,98209.80
2018-09-30T07:10:02.936Z,98208.91
2018-09-30T07:11:06.081Z,98208.04
2018-09-30T07:12:09.533Z,98202.56
2018-09-30T07:13:12.452Z,98206.84
2018-09-30T07:14:15.270Z,98199.70
2018-09-30T07:15:18.030Z,98204.75
2018-09-30T07:16:21.912Z,98207.56
2018-09-30T07:17:25.630Z,98204.97
2018-09-30T07:18:29.433Z,98206.80
2018-09-30T07:19:33.413Z,98206.56
2018-09-30T07:20:36.671Z,98208.46
2018-09-30T07:21:40.373Z,98209.92
2018-09-30T07:22:43.637Z,98209.51
2018-09-30T07:23:46.907Z,98208.84
2018-09-30T07:24:50.456Z,98208.03
2018-09-30T07:25:53.198Z,98208.28
2018-09-30T07:26:56.785Z,98209.19
2018-09-30T07:28:00.589Z,98208.05
2018-09-30T07:29:03.486Z,98211.92
2018-09-30T07:30:06.717Z,98213.47
2018-09-30T07:31:09.590Z,98206.62
2018-09-30T07:32:13.441Z,98211.10
2018-09-30T07:33:16.179Z,98212.23
2018-09-30T07:34:19.154Z,98212.64
2018-09-30T07:35:23.574Z,98208.56
2018-09-30T07:36:26.717Z,98208.45
2018-09-30T07:37:30.235Z,98206.47
2018-09-30T07:38:33.879Z,98205.61
2018-09-30T07:39:38.526Z,98201.42
2018-09-30T07:40:43.106Z,98203.44
2018-09-30T07:41:45.929Z,98205.27
2018-09-30T07:42:49.793Z,98201.47
2018-09-30T07:43:52.668Z,98203.55
2018-09-30T07:44:57.522Z,98202.41
2018-09-30T07:46:00.704Z,98204.64
2018-09-30T07:47:03.629Z,98200.39
2018-09-30T07:48:06.437Z,98199.88
2018-09-30T07:49:10.415Z,98195.27
2018-09-30T07:50:15.592Z,98190.48
2018-09-30T07:51:19.010Z,98189.95
2018-09-30T07:52:21.788Z,98191.31
2018-09-30T07:53:24.665Z,98191.97
2018-09-30T07:54:27.500Z,98193.63
2018-09-30T07:55:30.803Z,98190.72
2018-09-30T07:56:33.588Z,98189.56
2018-09-30T07:57:37.343Z,98191.64
2018-09-30T07:58:40.100Z,98191.30
2018-09-30T07:59:42.946Z,98188.80
2018-09-30T08:00:46.406Z,98190.30
2018-09-30T08:01:49.749Z,98189.23
2018-09-30T08:02:52.534Z,98192.59
2018-09-30T08:03:55.305Z,98196.09
2018-09-30T08:04:58.030Z,98193.58
2018-09-30T08:06:01.061Z,98187.52
2018-09-30T08:07:03.844Z,98188.93
2018-09-30T08:08:07.650Z,98188.45
2018-09-30T08:09:10.902Z,98189.48
2018-09-30T08:10:13.815Z,98190.03
2018-09-30T08:11:16.573Z,98190.84
2018-09-30T08:12:19.450Z,98193.83
2018-09-30T08:13:23.843Z,98190.15
2018-09-30T08:14:27.768Z,98187.52
2018-09-30T08:15:30.518Z,98186.97
2018-09-30T08:16:35.724Z,98188.53
2018-09-30T08:17:38.456Z,98188.94
2018-09-30T08:18:41.755Z,98181.23
2018-09-30T08:19:45.758Z,98177.42
2018-09-30T08:20:48.831Z,98176.38
2018-09-30T08:21:51.988Z,98174.38
2018-09-30T08:22:54.734Z,98168.98
2018-09-30T08:23:57.958Z,98174.64
2018-09-30T08:25:00.812Z,98170.66
2018-09-30T08:26:03.681Z,98174.41
2018-09-30T08:27:06.749Z,98172.33
2018-09-30T08:28:09.471Z,98173.60
2018-09-30T08:29:12.447Z,98175.28
2018-09-30T08:30:15.447Z,98174.23
2018-09-30T08:31:18.268Z,98170.05
2018-09-30T08:32:21.776Z,98165.83
2018-09-30T08:33:25.616Z,98169.05
2018-09-30T08:34:28.390Z,98166.09
2018-09-30T08:35:31.628Z,98161.30
2018-09-30T08:36:34.473Z,98167.86
2018-09-30T08:37:42.242Z,98160.06
2018-09-30T08:38:45.436Z,98159.62
2018-09-30T08:39:50.749Z,98157.53
2018-09-30T08:40:58.602Z,98156.87
2018-09-30T08:42:02.128Z,98155.09
2018-09-30T08:43:05.098Z,98160.16
2018-09-30T08:44:08.025Z,98150.54
2018-09-30T08:45:10.958Z,98148.94
2018-09-30T08:46:14.117Z,98155.61
2018-09-30T08:47:17.026Z,98152.45
2018-09-30T08:48:20.731Z,98149.84
2018-09-30T08:49:24.087Z,98146.58
2018-09-30T08:50:27.180Z,98138.88
2018-09-30T08:51:31.882Z,98139.41
2018-09-30T08:52:35.996Z,98136.41
2018-09-30T08:53:38.727Z,98133.20
2018-09-30T08:54:42.308Z,98133.75
2018-09-30T08:55:45.265Z,98136.80
2018-09-30T08:56:48.409Z,98129.73
2018-09-30T08:57:51.992Z,98121.22
2018-09-30T08:58:56.633Z,98126.72
2018-09-30T09:00:00.848Z,98123.91
2018-09-30T09:02:19.054Z,98115.08
2018-09-30T09:03:22.543Z,98122.90
2018-09-30T09:04:25.502Z,98112.94
2018-09-30T09:05:29.261Z,98107.05
2018-09-30T09:06:32.505Z,98112.55
2018-09-30T09:07:35.988Z,98112.93
2018-09-30T09:08:39.737Z,98118.45
2018-09-30T09:09:43.486Z,98110.84
2018-09-30T09:10:46.695Z,98111.59
2018-09-30T09:11:50.758Z,98114.09
2018-09-30T09:12:54.872Z,98110.94
2018-09-30T09:13:59.005Z,98117.80
2018-09-30T09:15:02.274Z,98118.71
2018-09-30T09:16:06.782Z,98113.42
2018-09-30T09:17:10.903Z,98105.20
2018-09-30T09:18:14.844Z,98103.98
2018-09-30T09:19:17.696Z,98111.47
2018-09-30T09:20:21.526Z,98113.29
2018-09-30T09:21:24.756Z,98110.37
2018-09-30T09:22:29.073Z,98107.59
2018-09-30T09:23:32.060Z,98113.59
2018-09-30T09:24:35.307Z,98113.48
2018-09-30T09:25:39.840Z,98107.59
2018-09-30T09:26:43.234Z,98105.80
2018-09-30T09:27:46.531Z,98121.89
2018-09-30T09:28:50.297Z,98111.36
2018-09-30T09:29:54.558Z,98110.37
2018-09-30T09:30:58.281Z,98112.94
2018-09-30T09:32:02.080Z,98107.27
2018-09-30T09:33:06.175Z,98104.95
2018-09-30T09:34:09.325Z,98108.91
2018-09-30T09:35:12.351Z,98103.06
2018-09-30T09:36:15.710Z,98104.78
2018-09-30T09:37:19.776Z,98103.92
2018-09-30T09:38:23.878Z,98096.52
2018-09-30T09:39:26.834Z,98103.44
2018-09-30T09:40:29.844Z,98098.01
2018-09-30T09:41:32.918Z,98102.52
2018-09-30T09:42:35.944Z,98100.30
2018-09-30T09:43:39.278Z,98103.19
2018-09-30T09:44:42.567Z,98098.13
2018-09-30T09:45:45.715Z,98102.72
2018-09-30T09:46:48.677Z,98102.52
2018-09-30T09:47:52.165Z,98099.12
2018-09-30T09:48:55.215Z,98085.20
2018-09-30T09:49:58.728Z,98079.19
2018-09-30T09:51:01.650Z,98083.34
2018-09-30T09:52:04.538Z,98079.03
2018-09-30T09:53:07.570Z,98089.15
2018-09-30T09:54:10.299Z,98086.44
2018-09-30T09:55:13.146Z,98084.00
2018-09-30T09:56:19.306Z,98080.61
2018-09-30T09:57:22.671Z,98088.13
2018-09-30T09:58:27.886Z,98082.84
2018-09-30T09:59:30.872Z,98086.23
2018-09-30T10:00:38.826Z,98087.69
2018-09-30T10:01:42.510Z,98082.97
2018-09-30T10:02:45.784Z,98082.63
2018-09-30T10:03:48.771Z,98069.84
2018-09-30T10:04:55.195Z,98070.52
2018-09-30T10:05:58.682Z,98073.70
2018-09-30T10:07:01.790Z,98064.95
2018-09-30T10:08:06.000Z,98066.72
2018-09-30T10:09:08.887Z,98060.22
2018-09-30T10:10:11.750Z,98058.20
2018-09-30T10:11:14.791Z,98057.63
2018-09-30T10:12:18.160Z,98053.41
2018-09-30T10:13:21.130Z,98058.20
2018-09-30T10:14:25.568Z,98055.07
2018-09-30T10:15:29.866Z,98052.09
2018-09-30T10:16:36.959Z,98056.50
2018-09-30T10:17:40.340Z,98053.03
2018-09-30T10:18:44.008Z,98047.95
2018-09-30T10:19:48.244Z,98041.66
2018-09-30T10:20:56.042Z,98047.09
2018-09-30T10:22:00.019Z,98044.30
2018-09-30T10:23:04.499Z,98041.23
2018-09-30T10:24:11.603Z,98043.00
2018-09-30T10:25:17.798Z,98046.19
2018-09-30T10:26:21.317Z,98041.00
2018-09-30T10:27:24.402Z,98041.18
2018-09-30T10:28:29.504Z,98031.79
2018-09-30T10:29:32.298Z,98030.62
2018-09-30T10:30:35.964Z,98030.52
2018-09-30T10:44:26.858Z,98022.77
2018-09-30T10:45:30.358Z,98011.48
2018-09-30T10:46:35.325Z,98017.62
2018-09-30T10:47:38.165Z,98016.18
2018-09-30T10:48:41.828Z,98007.59
2018-09-30T10:49:45.894Z,98011.02
2018-09-30T10:50:48.753Z,98009.36
2018-09-30T10:51:51.628Z,98006.36
2018-09-30T10:52:55.935Z,98002.05
2018-09-30T10:53:59.704Z,97999.27
2018-09-30T10:55:02.607Z,97999.41
2018-09-30T10:56:06.674Z,97999.14
2018-09-30T10:57:11.207Z,97996.03
2018-09-30T10:58:14.029Z,97996.53
2018-09-30T10:59:16.946Z,97993.01
2018-09-30T11:00:19.908Z,98001.47
2018-09-30T11:01:23.793Z,97997.48
2018-09-30T11:02:28.958Z,97993.17
2018-09-30T11:03:31.984Z,97989.17
2018-09-30T11:04:35.925Z,97989.34
2018-09-30T11:05:39.670Z,97990.83
2018-09-30T11:06:42.464Z,97994.15
2018-09-30T11:07:45.215Z,97989.97
2018-09-30T11:08:48.252Z,97983.39
2018-09-30T11:09:51.046Z,97984.19
2018-09-30T11:10:55.891Z,97988.28
2018-09-30T11:11:58.697Z,97982.19
2018-09-30T11:13:03.891Z,97981.36
2018-09-30T11:14:06.706Z,97980.97
2018-09-30T11:15:10.340Z,97988.73
2018-09-30T11:16:13.311Z,97984.48
2018-09-30T11:17:16.590Z,97980.09
2018-09-30T11:18:19.712Z,97986.83
2018-09-30T11:19:22.583Z,97978.41
2018-09-30T11:20:25.841Z,97980.30
2018-09-30T11:21:30.675Z,97978.00
2018-09-30T11:22:33.940Z,97979.54
2018-09-30T11:23:37.631Z,97974.48
2018-09-30T11:24:40.991Z,97976.39
2018-09-30T11:25:44.693Z,97966.89
2018-09-30T11:26:51.049Z,97958.19
2018-09-30T11:27:56.850Z,97962.59
2018-09-30T11:29:01.452Z,97962.22
2018-09-30T11:30:05.842Z,97954.12
2018-09-30T11:31:08.905Z,97949.31
2018-09-30T11:32:11.896Z,97948.64
2018-09-30T11:33:14.911Z,97941.29
2018-09-30T11:34:18.964Z,97940.69
2018-09-30T11:35:21.701Z,97938.88
2018-09-30T11:36:25.011Z,97934.69
2018-09-30T11:37:29.556Z,97938.59
2018-09-30T11:38:32.758Z,97935.66
2018-09-30T11:39:36.789Z,97935.80
2018-09-30T11:40:41.337Z,97935.20
2018-09-30T11:41:44.645Z,97931.41
2018-09-30T11:42:48.304Z,97936.47
2018-09-30T11:43:53.516Z,97929.08
2018-09-30T11:44:57.514Z,97926.20
2018-09-30T11:46:00.271Z,97916.05
2018-09-30T11:47:03.412Z,97923.91
2018-09-30T11:48:08.947Z,97923.17
2018-09-30T11:49:11.793Z,97920.86
2018-09-30T11:50:15.575Z,97936.56
2018-09-30T11:51:20.004Z,97931.07
2018-09-30T11:52:23.136Z,97919.36
2018-09-30T11:53:27.253Z,97923.97
2018-09-30T11:54:30.945Z,97919.25
2018-09-30T11:55:33.770Z,97921.47
2018-09-30T11:56:37.299Z,97920.30
2018-09-30T11:57:41.643Z,97922.38
2018-09-30T11:58:45.710Z,97924.84
2018-09-30T11:59:48.800Z,97923.60
2018-09-30T12:00:52.555Z,97921.42
2018-09-30T12:01:56.456Z,97920.80
2018-09-30T12:03:00.069Z,97905.55
2018-09-30T12:04:04.087Z,97903.23
2018-09-30T12:05:10.806Z,97900.36
2018-09-30T12:06:14.355Z,97896.97
2018-09-30T12:07:17.530Z,97901.57
2018-09-30T12:08:20.504Z,97896.24
2018-09-30T12:09:24.935Z,97898.41
2018-09-30T12:10:28.216Z,97897.52
2018-09-30T12:12:41.275Z,97883.62
2018-09-30T12:13:44.259Z,97880.78
2018-09-30T12:14:47.305Z,97871.41
2018-09-30T12:15:50.294Z,97880.73
2018-09-30T12:16:53.209Z,97868.77
2018-09-30T12:17:56.860Z,97861.25
2018-09-30T12:19:02.548Z,97867.36
2018-09-30T12:20:06.330Z,97872.10
2018-09-30T12:21:10.258Z,97868.91
2018-09-30T12:22:14.005Z,97884.55
2018-09-30T12:23:19.148Z,97876.70
2018-09-30T12:24:22.554Z,97877.71
2018-09-30T12:25:26.053Z,97869.91
2018-09-30T12:26:29.438Z,97874.75
2018-09-30T12:27:32.643Z,97868.34
2018-09-30T12:28:36.334Z,97864.45
2018-09-30T12:29:39.219Z,97864.31
2018-09-30T12:30:44.134Z,97868.53
2018-09-30T12:31:48.264Z,97862.73
2018-09-30T12:32:52.642Z,97852.55
2018-09-30T12:33:55.386Z,97863.31
2018-09-30T12:34:58.404Z,97861.55
2018-09-30T12:36:01.140Z,97853.55
2018-09-30T12:37:04.357Z,97863.03
2018-09-30T12:38:07.241Z,97860.45
2018-09-30T12:39:11.609Z,97857.30
2018-09-30T12:40:14.437Z,97858.86
2018-09-30T12:41:18.274Z,97862.20
2018-09-30T12:42:21.037Z,97863.12
2018-09-30T12:43:24.346Z,97849.98
2018-09-30T12:44:30.378Z,97858.25
2018-09-30T12:45:33.183Z,97850.38
2018-09-30T12:46:37.365Z,97859.66
2018-09-30T12:47:40.222Z,97842.18
2018-09-30T12:48:43.791Z,97859.84
2018-09-30T12:49:48.118Z,97853.05
2018-09-30T12:50:51.689Z,97840.81
2018-09-30T12:51:56.974Z,97837.91
2018-09-30T12:53:02.652Z,97833.98
2018-09-30T12:54:06.313Z,97832.88